• Join FlightAware (Why Join?)
  • Login
  • US Flag 
12:47PM EDT


 

Airport Tracker/Info


-or-


 

Live Flight TrackerFlight Track Log ✈ DAL268 ✈ 08-Jul-2013 ✈ KJFK - LLBG / TLV

Flight Track Log - Related Links

Times and Time Zones

All times are in EDT time to prevent confusion due to time zone crossing. See the DAL268 flight status page for this flight to view local times or setup timezone preferences in your user account.

Time Position Orientation Groundspeed Altitude Reporting Facility
EDT Latitude Longitude Course Direction KTS MPH feet Rate Location/Type
12:39AM 40.6370 -73.7800 261° West  Level FlightAware
12:44AM 40.6380 -73.7790 37° Northeast 10 12  Level FlightAware
12:46AM 40.6370 -73.7790 180° South 12 14  Level FlightAware
12:48AM 40.6360 -73.7790 180° South 2 2  Level FlightAware
12:50AM 40.5265 -73.4461 114° Southeast  Level FlightAware Approximate
12:51AM 40.4731 -73.2795 123° Southeast  Level FlightAware Approximate
12:52AM 40.4191 -73.1112 119° Southeast  Level FlightAware Approximate
12:53AM 40.3901 -72.9397 72° East  Level FlightAware Approximate
12:54AM 40.4300 -72.7632 72° East  Level FlightAware Approximate
12:55AM 40.6360 -73.7770 90° East 18 21  Level FlightAware
12:55AM 40.6370 -73.7760 37° Northeast 27 31  Level FlightAware
12:55AM 40.6380 -73.7750 37° Northeast 33 38  Level FlightAware
12:56AM 40.6400 -73.7730 37° Northeast 15 17  Level FlightAware
12:56AM 40.6410 -73.7720 37° Northeast 17 20  Level FlightAware
12:57AM 40.6430 -73.7710 21° North 15 17 60 Level FlightAware
12:57AM 40.6450 -73.7700 21° North 31 36 60 Level FlightAware
12:58AM 40.6460 -73.7690 37° Northeast 31 36 60 Level FlightAware
12:58AM 40.6480 -73.7690 360° North 27 31 60 Level FlightAware
12:58AM 40.6480 -73.7680 90° East 28 32 60 Level FlightAware
12:59AM 40.6490 -73.7660 57° Northeast 21 24 60 Level FlightAware
01:00AM 40.6490 -73.7650 90° East 19 22 120 Level FlightAware
01:00AM 40.6480 -73.7650 180° South 18 21 180 Level FlightAware
01:01AM 40.6210 -73.7860 211° Southwest 173 199 300 600 Climbing FlightAware
01:02AM 40.6000 -73.8010 208° Southwest 179 206 1,000 1,260 Climbing FlightAware
01:02AM 40.5790 -73.8150 207° Southwest 201 231 1,500 1,020 Climbing FlightAware
01:02AM 40.5510 -73.8290 201° Southwest 240 276 2,000 1,440 Climbing FlightAware
01:03AM 40.5100 -73.8190 169° South 268 308 3,100 1,860 Climbing FlightAware
01:03AM 40.5000 -73.8050 133° Southeast 276 318 3,500 2,460 Climbing FlightAware
01:04AM 40.4913 -73.7682 107° East 278 320 4,500 2,880 Climbing FlightAware ADS-B
01:04AM 40.4914 -73.7631 89° East 279 321 4,700 2,520 Climbing FlightAware ADS-B
01:04AM 40.4920 -73.7563 83° East 282 325 4,800 1,500 Climbing FlightAware ADS-B
01:04AM 40.4964 -73.7287 78° East 296 341 5,200 1,500 Climbing FlightAware ADS-B
01:04AM 40.5013 -73.7019 76° East 304 350 5,600 2,100 Climbing FlightAware ADS-B
01:05AM 40.5064 -73.6725 77° East 309 356 6,300 2,700 Climbing FlightAware ADS-B
01:05AM 40.5077 -73.6652 77° East 311 358 6,500 2,700 Climbing FlightAware ADS-B
01:05AM 40.5090 -73.6522 83° East 310 357 6,800 3,000 Climbing FlightAware ADS-B
01:05AM 40.5097 -73.6353 87° East 309 356 7,300 3,000 Climbing FlightAware ADS-B
01:05AM 40.5089 -73.6165 93° East 311 358 7,800 2,520 Climbing FlightAware ADS-B
01:05AM 40.5068 -73.5957 98° East 314 361 8,200 2,040 Climbing FlightAware ADS-B
01:05AM 40.5031 -73.5732 102° East 320 368 8,600 2,400 Climbing FlightAware ADS-B
01:06AM 40.4974 -73.5426 104° East 323 372 9,300 2,520 Climbing FlightAware ADS-B
01:06AM 40.4859 -73.4854 105° East 332 382 10,500 1,680 Climbing FlightAware ADS-B
01:07AM 40.4724 -73.4174 105° East 367 422 11,100 1,260 Climbing FlightAware ADS-B
01:07AM 40.4579 -73.3455 105° East 394 453 11,900 1,500 Climbing FlightAware ADS-B
01:08AM 40.4437 -73.2739 105° East 418 481 12,700 1,440 Climbing FlightAware ADS-B
01:08AM 40.4285 -73.1982 105° East 438 504 13,400 1,860 Climbing FlightAware ADS-B
01:09AM 40.4131 -73.1178 104° East 445 512 14,600 2,220 Climbing FlightAware ADS-B
01:09AM 40.3967 -73.0359 105° East 455 524 15,700 2,040 Climbing FlightAware ADS-B
01:10AM 40.3915 -73.0032 102° East 460 529 16,100 2,160 Climbing FlightAware ADS-B
01:10AM 40.3895 -72.9753 95° East 465 535 16,500 2,280 Climbing FlightAware ADS-B
01:10AM 40.3901 -72.9440 89° East 470 541 16,900 2,280 Climbing FlightAware ADS-B
01:10AM 40.3934 -72.9130 82° East 473 544 17,300 2,160 Climbing FlightAware ADS-B
01:10AM 40.3994 -72.8822 76° East 477 549 17,700 2,340 Climbing FlightAware ADS-B
01:10AM 40.4082 -72.8495 71° East 481 554 18,200 2,280 Climbing FlightAware ADS-B
01:11AM 40.4289 -72.7975 62° Northeast 484 557 18,900 2,100 Climbing FlightAware ADS-B
01:11AM 40.4685 -72.7252 54° Northeast 488 562 20,000 1,860 Climbing FlightAware ADS-B
01:12AM 40.5086 -72.6525 54° Northeast 496 571 20,800 1,320 Climbing FlightAware ADS-B
01:12AM 40.5499 -72.5745 55° Northeast 510 587 21,400 1,320 Climbing FlightAware ADS-B
01:13AM 40.5901 -72.4935 57° Northeast 518 596 22,200 1,440 Climbing FlightAware ADS-B
01:13AM 40.6297 -72.4139 57° Northeast 524 603 22,900 1,320 Climbing FlightAware ADS-B
01:14AM 40.6705 -72.3302 57° Northeast 531 611 23,600 1,440 Climbing FlightAware ADS-B
01:14AM 40.7127 -72.2429 57° Northeast 535 616 24,400 1,380 Climbing FlightAware ADS-B
01:15AM 40.7759 -72.1122 57° Northeast 541 623 25,400 1,200 Climbing FlightAware ADS-B
01:16AM 40.8176 -72.0274 57° Northeast 551 634 26,000 1,200 Climbing FlightAware ADS-B
01:16AM 40.8598 -71.9391 58° Northeast 552 635 26,700 1,440 Climbing FlightAware ADS-B
01:17AM 40.9017 -71.8509 58° Northeast 550 633 27,500 1,560 Climbing FlightAware ADS-B
01:17AM 40.9531 -71.7429 58° Northeast 549 632 28,500 1,560 Climbing FlightAware ADS-B
01:18AM 40.9990 -71.6460 58° Northeast 547 629 29,400 1,620 Climbing FlightAware
01:18AM 41.0440 -71.5500 58° Northeast 541 623 30,400 720 Climbing FlightAware
01:19AM 41.1000 -71.4370 57° Northeast 541 623 30,400 480 Level FlightAware
01:20AM 41.1540 -71.3180 59° Northeast 533 613 31,100 600 Climbing FlightAware
01:20AM 41.1960 -71.2280 58° Northeast 532 612 31,100  Level FlightAware
01:21AM 41.2530 -71.1050 58° Northeast 531 611 31,100  Level FlightAware
01:22AM 41.3120 -70.9790 58° Northeast 533 613 31,100  Level FlightAware
01:23AM 41.3700 -70.8520 59° Northeast 534 615 31,100  Level FlightAware
01:24AM 41.4370 -70.7080 58° Northeast 534 615 31,100  Level FlightAware
01:24AM 41.4890 -70.5950 58° Northeast 534 615 31,100  Level FlightAware
01:25AM 41.5520 -70.4550 59° Northeast 534 615 31,100  Level FlightAware
01:26AM 41.6030 -70.3400 59° Northeast 534 615 31,100  Level FlightAware
01:27AM 41.6430 -70.2510 59° Northeast 534 615 31,100  Level FlightAware
01:28AM 41.7520 -70.0150 58° Northeast 541 623 31,100  Level FlightAware
01:28AM 41.8040 -69.8980 59° Northeast 541 623 31,100  Level FlightAware
01:29AM 41.8450 -69.8070 59° Northeast 541 623 31,100  Level FlightAware
01:30AM 41.9580 -69.5530 59° Northeast 543 625 31,100  Level FlightAware
01:31AM 42.0200 -69.4120 59° Northeast 544 626 31,100  Level FlightAware
01:32AM 42.0880 -69.2570 59° Northeast 547 629 31,100 -120 Level FlightAware
01:32AM 42.1390 -69.1390 60° Northeast 550 633 31,000 -120 Descending FlightAware
01:33AM 42.2090 -68.9770 60° Northeast 548 631 31,000 60 Level FlightAware
01:34AM 42.2610 -68.8590 59° Northeast 546 628 31,100 60 Climbing FlightAware
01:35AM 42.3180 -68.7260 60° Northeast 548 631 31,100  Level FlightAware
01:36AM 42.3740 -68.5960 60° Northeast 548 631 31,100  Level FlightAware
01:37AM 42.4860 -68.3330 60° Northeast 549 632 31,100  Level FlightAware
01:38AM 42.5390 -68.2080 60° Northeast 549 632 31,100  Level FlightAware
01:39AM 42.5780 -68.1170 60° Northeast 549 632 31,100  Level FlightAware
01:39AM 42.6170 -68.0260 60° Northeast 549 632 31,100  Level FlightAware
01:40AM 42.6680 -67.9040 60° Northeast 549 632 31,100  Level FlightAware
01:41AM 42.7070 -67.8120 60° Northeast 549 632 31,100  Level FlightAware
01:41AM 42.7600 -67.6870 60° Northeast 549 632 31,100  Level FlightAware
01:42AM 42.7990 -67.5960 60° Northeast 549 632 31,100  Level FlightAware
01:43AM 42.8510 -67.4730 60° Northeast 549 632 31,100  Level FlightAware
01:43AM 42.8870 -67.3860 61° Northeast 549 632 31,100  Level FlightAware
01:44AM 42.9270 -67.2920 60° Northeast 549 632 31,100  Level FlightAware
01:45AM 42.9940 -67.1340 60° Northeast 549 632 31,100  Level FlightAware
01:46AM 43.0310 -67.0470 60° Northeast 549 632 31,100  Level FlightAware
01:46AM 43.0720 -66.9490 60° Northeast 549 632 31,100  Level FlightAware
01:48AM 43.2980 -66.3550 62° Northeast 554 638 31,100  Level FlightAware
01:49AM 43.3480 -66.2270 62° Northeast 555 639 31,100  Level FlightAware
01:49AM 43.3970 -66.1020 62° Northeast 556 640 31,100  Level FlightAware
01:50AM 43.4530 -65.9580 62° Northeast 554 638 31,100  Level FlightAware
01:51AM 43.5060 -65.8240 61° Northeast 555 639 31,100  Level FlightAware
01:51AM 43.5420 -65.7330 61° Northeast 555 639 31,100  Level FlightAware
01:52AM 43.5980 -65.5860 62° Northeast 555 639 31,100  Level FlightAware
01:53AM 43.6520 -65.4490 61° Northeast 552 635 31,100  Level FlightAware
01:53AM 43.6880 -65.3520 63° Northeast 552 635 31,100  Level FlightAware
01:54AM 43.7400 -65.2140 62° Northeast 553 636 31,100  Level FlightAware
01:55AM 43.7900 -65.0830 62° Northeast 554 638 31,100  Level FlightAware
01:55AM 43.8430 -64.9450 62° Northeast 554 638 31,100  Level FlightAware
01:56AM 43.8900 -64.8180 63° Northeast 555 639 31,100  Level FlightAware
01:57AM 43.9540 -64.6510 62° Northeast 555 639 31,100  Level FlightAware
01:58AM 44.0020 -64.5180 63° Northeast 31,100  Level FlightAware
01:58AM 44.0420 -64.4100 63° Northeast 555 639 31,100  Level FlightAware
01:59AM 44.0900 -64.2800 63° Northeast 556 640 31,100  Level FlightAware
02:00AM 44.1610 -64.0870 63° Northeast 556 640 31,100  Level FlightAware
02:01AM 44.2190 -63.9290 63° Northeast 557 641 31,100  Level FlightAware
02:01AM 44.2680 -63.7950 63° Northeast 556 640 31,100  Level FlightAware
02:02AM 44.3140 -63.6670 63° Northeast 558 642 31,100  Level FlightAware
02:03AM 44.3640 -63.5250 64° Northeast 559 643 31,100  Level FlightAware
02:04AM 44.4130 -63.3860 64° Northeast 558 642 31,100  Level FlightAware
02:04AM 44.4630 -63.2470 63° Northeast 559 643 31,100  Level FlightAware
02:05AM 44.5040 -63.1310 64° Northeast 558 642 31,100  Level FlightAware
02:06AM 44.5860 -62.8960 64° Northeast 557 641 31,100  Level FlightAware
02:07AM 44.6460 -62.7260 64° Northeast 558 642 31,100  Level FlightAware
02:08AM 44.6830 -62.6200 64° Northeast 558 642 31,100  Level FlightAware
02:08AM 44.7410 -62.4530 64° Northeast 560 644 31,100  Level FlightAware
02:09AM 44.7760 -62.3520 64° Northeast 560 644 31,100  Level FlightAware
02:10AM 44.8340 -62.1850 64° Northeast 560 644 31,100  Level FlightAware
02:11AM 44.8660 -62.0900 65° Northeast 560 644 31,100  Level FlightAware
02:11AM 44.9090 -61.9670 64° Northeast 560 644 31,100  Level FlightAware
02:12AM 44.9440 -61.8660 64° Northeast 560 644 31,100  Level FlightAware
02:13AM 45.0150 -61.6590 64° Northeast 560 644 31,100  Level FlightAware
02:14AM 45.0500 -61.5580 64° Northeast 560 644 31,100  Level FlightAware
02:15AM 45.1280 -61.3310 64° Northeast 560 644 31,100  Level FlightAware
02:16AM 45.1750 -61.1940 64° Northeast 560 644 31,100  Level FlightAware
02:17AM 45.2110 -61.0900 64° Northeast 560 644 31,100  Level FlightAware
02:17AM 45.2480 -60.9830 64° Northeast 560 644 31,100  Level FlightAware
02:18AM 45.4580 -60.5940 52° Northeast 555 639 31,100  Level FlightAware
02:19AM 45.5100 -60.4680 59° Northeast 555 639 31,100  Level FlightAware
02:19AM 45.5620 -60.3410 60° Northeast 556 640 31,100  Level FlightAware
02:20AM 45.6130 -60.2140 60° Northeast 555 639 31,100  Level FlightAware
02:21AM 45.6700 -60.0750 60° Northeast 554 638 31,100  Level FlightAware
02:21AM 45.7100 -59.9740 60° Northeast 554 638 31,100  Level FlightAware
02:22AM 45.7640 -59.8400 60° Northeast 554 638 31,100  Level FlightAware
02:23AM 45.8150 -59.7120 60° Northeast 555 639 31,100  Level FlightAware
02:23AM 45.8740 -59.5620 60° Northeast 555 639 31,100  Level FlightAware
02:24AM 45.9250 -59.4340 60° Northeast 557 641 31,100  Level FlightAware
02:25AM 45.9790 -59.2990 60° Northeast 558 642 31,100  Level FlightAware
02:25AM 46.0330 -59.1600 61° Northeast 558 642 31,100  Level FlightAware
02:26AM 46.0760 -59.0500 61° Northeast 559 643 31,100  Level FlightAware
02:27AM 46.1300 -58.9100 61° Northeast 560 644 31,100  Level FlightAware
02:28AM 46.2000 -58.7270 61° Northeast 561 646 31,100  Level FlightAware
02:28AM 46.2430 -58.6150 61° Northeast 563 648 31,100  Level FlightAware
02:29AM 46.2960 -58.4800 60° Northeast 564 649 31,100  Level FlightAware
02:30AM 46.3430 -58.3550 61° Northeast 565 650 31,100  Level FlightAware
02:31AM 46.4230 -58.1450 61° Northeast 565 650 31,100  Level FlightAware
02:32AM 46.4760 -58.0070 61° Northeast 565 650 31,100  Level FlightAware
02:32AM 46.5160 -57.9030 61° Northeast 565 650 31,100  Level FlightAware
02:33AM 46.5910 -57.6950 62° Northeast 565 650 31,100  Level FlightAware
02:34AM 46.6590 -57.5140 61° Northeast 565 650 31,100  Level FlightAware
02:35AM 46.6980 -57.4120 61° Northeast 565 650 31,100  Level FlightAware
02:35AM 46.7510 -57.2730 61° Northeast 565 650 31,100  Level FlightAware
02:36AM 46.7890 -57.1740 61° Northeast 565 650 31,100  Level FlightAware
02:37AM 46.8380 -57.0430 61° Northeast 565 650 31,100  Level FlightAware
02:38AM 46.9360 -56.7360 65° Northeast 566 651 31,100  Level FlightAware
02:38AM 46.9900 -56.5830 63° Northeast 567 652 31,100  Level FlightAware
02:39AM 47.0360 -56.4490 63° Northeast 567 652 31,100  Level FlightAware
02:40AM 47.0890 -56.2950 63° Northeast 567 652 31,100  Level FlightAware
02:41AM 47.1420 -56.1400 63° Northeast 568 654 31,100  Level FlightAware
02:41AM 47.2080 -55.9440 64° Northeast 568 654 31,100  Level FlightAware
02:42AM 47.2460 -55.8330 63° Northeast 568 654 31,100  Level FlightAware
02:43AM 47.2980 -55.6770 64° Northeast 568 654 31,100  Level FlightAware
02:43AM 47.3460 -55.5360 63° Northeast 568 654 31,100  Level FlightAware
02:44AM 47.3830 -55.4250 64° Northeast 566 651 31,100  Level FlightAware
02:45AM 47.4260 -55.2930 64° Northeast 562 647 31,100  Level FlightAware
02:45AM 47.4770 -55.1380 64° Northeast 560 644 31,100  Level FlightAware
02:46AM 47.5290 -54.9800 64° Northeast 557 641 31,100  Level FlightAware
02:47AM 47.5730 -54.8470 64° Northeast 555 639 31,100 120 Level FlightAware
02:48AM 47.6240 -54.6890 64° Northeast 557 641 31,300 780 Climbing FlightAware
02:48AM 47.6680 -54.5510 65° Northeast 557 641 32,200 1,140 Climbing FlightAware
02:49AM 47.7210 -54.3850 65° Northeast 560 644 33,100 540 Climbing FlightAware
02:50AM 47.7680 -54.2390 64° Northeast 561 646 33,100  Level FlightAware
02:50AM 47.8120 -54.0960 65° Northeast 561 646 33,100  Level FlightAware
02:51AM 47.8540 -53.9630 65° Northeast 561 646 33,100  Level FlightAware
02:52AM 47.8990 -53.8200 65° Northeast 562 647 33,100  Level FlightAware
02:52AM 47.9420 -53.6790 65° Northeast 563 648 33,100  Level FlightAware
02:53AM 47.9920 -53.5210 65° Northeast 562 647 33,100  Level FlightAware
02:54AM 48.0340 -53.3830 65° Northeast 563 648 33,100  Level FlightAware
02:55AM 48.0840 -53.2200 65° Northeast 564 649 33,100  Level FlightAware
02:55AM 48.1210 -53.0950 66° East 564 649 33,100  Level FlightAware
02:56AM 48.1810 -52.8960 66° East 565 650 33,100  Level FlightAware
02:57AM 48.2260 -52.7500 65° Northeast 565 650 33,100  Level FlightAware
02:57AM 48.2710 -52.5950 66° East 567 652 33,100  Level FlightAware
02:58AM 48.3080 -52.4700 66° East 567 652 33,100  Level FlightAware
02:59AM 48.3510 -52.3250 66° East 569 655 33,100  Level FlightAware
02:59AM 48.3900 -52.1920 66° East 570 656 33,100  Level FlightAware
03:00AM 48.4650 -51.9330 66° East 572 658 33,100  Level FlightAware
03:01AM 48.5070 -51.7870 66° East 573 659 33,100  Level FlightAware
03:02AM 48.5600 -51.6000 67° East 575 662 33,100  Level FlightAware
03:03AM 48.6000 -51.4590 67° East 576 663 33,100  Level FlightAware
03:03AM 48.6500 -51.2820 67° East 577 664 33,100  Level FlightAware
03:04AM 48.6910 -51.1370 67° East 577 664 33,100  Level FlightAware
03:05AM 48.7380 -50.9690 67° East 577 664 33,100  Level FlightAware
03:06AM 48.7760 -50.8310 67° East 577 664 33,100  Level FlightAware
03:06AM 48.8260 -50.6490 67° East 577 664 33,100  Level FlightAware
03:07AM 48.8680 -50.4970 67° East 577 664 33,100  Level FlightAware
03:08AM 48.9110 -50.3440 67° East 577 664 33,100  Level FlightAware
03:09AM 48.9650 -50.1500 67° East 577 664 33,100  Level FlightAware
03:10AM 48.9970 -50.0360 67° East 577 664 33,100  Level FlightAware
03:10AM 49.0290 -49.9180 67° East 577 664 33,100  Level FlightAware
03:11AM 49.0650 -49.7900 67° East 577 664 33,100  Level FlightAware
03:12AM 49.1190 -49.5960 67° East 577 664 33,100  Level FlightAware
03:12AM 49.1667 -49.2333 70° East 580 667 33,100  Level Gander Center
03:13AM 49.1520 -49.4780 67° East 577 664 33,100  Level FlightAware
03:13AM 49.1950 -49.3210 67° East 577 664 33,100  Level FlightAware
03:14AM 49.2333 -48.9500 70° East 580 667 33,100  Level Gander Center
03:14AM 49.2270 -49.2060 67° East 577 664 33,100  Level FlightAware
03:14AM 49.2480 -49.1290 67° East 577 664 33,100  Level FlightAware
03:15AM 49.2927 -48.7056 69° East  Level FlightAware Approximate
03:15AM 49.2930 -48.9660 67° East 577 664 33,100  Level FlightAware
03:15AM 49.3167 -48.5167 70° East 590 679 33,100  Level Gander Center
03:16AM 49.3833 -48.3000 65° Northeast 580 667 33,100  Level Gander Center
03:19AM 49.4089 -48.2567 70° East  Level FlightAware Approximate
03:19AM 49.5000 -47.7667 71° East 590 679 33,100  Level Gander Center
03:20AM 49.5500 -47.5500 70° East 590 679 33,100  Level Gander Center
03:21AM 49.5981 -47.3408 70° East  Level FlightAware Approximate
03:22AM 49.6189 -47.3119 70° East  Level FlightAware Approximate
03:28AM 49.9242 -45.8651 71° East  Level FlightAware Approximate
03:29AM 49.9693 -45.6526 72° East  Level FlightAware Approximate
03:30AM 50.0140 -45.4398 72° East  Level FlightAware Approximate
03:31AM 50.0582 -45.2266 72° East  Level FlightAware Approximate
03:32AM 50.1021 -45.0130 72° East  Level FlightAware Approximate
03:33AM 50.1456 -44.7990 72° East  Level FlightAware Approximate
03:34AM 50.1887 -44.5846 72° East  Level FlightAware Approximate
03:35AM 50.2314 -44.3698 73° East  Level FlightAware Approximate
03:36AM 50.2737 -44.1547 73° East  Level FlightAware Approximate
03:37AM 50.3156 -43.9391 73° East  Level FlightAware Approximate
03:38AM 50.3571 -43.7232 73° East  Level FlightAware Approximate
03:39AM 50.3982 -43.5069 73° East  Level FlightAware Approximate
03:40AM 50.4389 -43.2902 73° East  Level FlightAware Approximate
03:41AM 50.4792 -43.0732 74° East  Level FlightAware Approximate
03:42AM 50.5191 -42.8558 74° East  Level FlightAware Approximate
03:43AM 50.5586 -42.6380 74° East  Level FlightAware Approximate
03:44AM 50.5977 -42.4199 74° East  Level FlightAware Approximate
03:45AM 50.6364 -42.2014 74° East  Level FlightAware Approximate
03:46AM 50.6746 -41.9825 74° East  Level FlightAware Approximate
03:47AM 50.7125 -41.7633 75° East  Level FlightAware Approximate
03:48AM 50.7500 -41.5437 75° East  Level FlightAware Approximate
03:49AM 50.7870 -41.3238 75° East  Level FlightAware Approximate
03:50AM 50.8236 -41.1036 75° East  Level FlightAware Approximate
03:51AM 50.8598 -40.8830 75° East  Level FlightAware Approximate
03:52AM 50.8956 -40.6620 76° East  Level FlightAware Approximate
03:53AM 50.9310 -40.4408 76° East  Level FlightAware Approximate
03:54AM 50.9659 -40.2191 76° East  Level FlightAware Approximate
03:55AM 51.0001 -39.9971 86° East  Level FlightAware Approximate
03:56AM 51.0097 -39.7689 86° East  Level FlightAware Approximate
03:57AM 51.0187 -39.5406 86° East  Level FlightAware Approximate
03:58AM 51.0274 -39.3121 86° East  Level FlightAware Approximate
03:59AM 51.0356 -39.0837 87° East  Level FlightAware Approximate
04:00AM 51.0434 -38.8551 87° East  Level FlightAware Approximate
04:01AM 51.0507 -38.6264 87° East  Level FlightAware Approximate
04:02AM 51.0575 -38.3977 87° East  Level FlightAware Approximate
04:03AM 51.0639 -38.1690 87° East  Level FlightAware Approximate
04:04AM 51.0699 -37.9401 88° East  Level FlightAware Approximate
04:05AM 51.0754 -37.7112 88° East  Level FlightAware Approximate
04:06AM 51.0805 -37.4823 88° East  Level FlightAware Approximate
04:07AM 51.0851 -37.2533 88° East  Level FlightAware Approximate
04:08AM 51.0893 -37.0242 88° East  Level FlightAware Approximate
04:09AM 51.0930 -36.7952 88° East  Level FlightAware Approximate
04:10AM 51.0963 -36.5660 89° East  Level FlightAware Approximate
04:11AM 51.0992 -36.3369 89° East  Level FlightAware Approximate
04:12AM 51.1016 -36.1077 89° East  Level FlightAware Approximate
04:13AM 51.1035 -35.8785 89° East  Level FlightAware Approximate
04:14AM 51.1050 -35.6493 89° East  Level FlightAware Approximate
04:15AM 51.1060 -35.4201 89° East  Level FlightAware Approximate
04:16AM 51.1067 -35.1909 90° East  Level FlightAware Approximate
04:17AM 51.1068 -34.9616 90° East  Level FlightAware Approximate
04:18AM 51.1065 -34.7324 90° East  Level FlightAware Approximate
04:19AM 51.1058 -34.5032 90° East  Level FlightAware Approximate
04:20AM 51.1045 -34.2739 90° East  Level FlightAware Approximate
04:21AM 51.1029 -34.0447 91° East  Level FlightAware Approximate
04:22AM 51.1008 -33.8155 91° East  Level FlightAware Approximate
04:23AM 51.0983 -33.5864 91° East  Level FlightAware Approximate
04:24AM 51.0953 -33.3572 91° East  Level FlightAware Approximate
04:25AM 51.0919 -33.1281 91° East  Level FlightAware Approximate
04:26AM 51.0880 -32.8991 91° East  Level FlightAware Approximate
04:27AM 51.0836 -32.6700 92° East  Level FlightAware Approximate
04:28AM 51.0789 -32.4410 92° East  Level FlightAware Approximate
04:29AM 51.0736 -32.2121 92° East  Level FlightAware Approximate
04:30AM 51.0680 -31.9832 92° East  Level FlightAware Approximate
04:31AM 51.0618 -31.7544 92° East  Level FlightAware Approximate
04:32AM 51.0553 -31.5257 93° East  Level FlightAware Approximate
04:33AM 51.0483 -31.2970 93° East  Level FlightAware Approximate
04:34AM 51.0408 -31.0683 93° East  Level FlightAware Approximate
04:35AM 51.0329 -30.8398 93° East  Level FlightAware Approximate
04:36AM 51.0246 -30.6113 93° East  Level FlightAware Approximate
04:37AM 51.0158 -30.3830 93° East  Level FlightAware Approximate
04:38AM 51.0065 -30.1547 94° East  Level FlightAware Approximate
04:39AM 51.0103 -29.9281 77° East  Level FlightAware Approximate
04:40AM 51.0419 -29.7048 77° East  Level FlightAware Approximate
04:41AM 51.0731 -29.4813 77° East  Level FlightAware Approximate
04:42AM 51.1038 -29.2574 78° East  Level FlightAware Approximate
04:43AM 51.1341 -29.0333 78° East  Level FlightAware Approximate
04:44AM 51.1640 -28.8088 78° East  Level FlightAware Approximate
04:45AM 51.1935 -28.5841 78° East  Level FlightAware Approximate
04:46AM 51.2225 -28.3591 78° East  Level FlightAware Approximate
04:47AM 51.2511 -28.1338 78° East  Level FlightAware Approximate
04:48AM 51.2793 -27.9082 79° East  Level FlightAware Approximate
04:49AM 51.3070 -27.6824 79° East  Level FlightAware Approximate
04:50AM 51.3344 -27.4562 79° East  Level FlightAware Approximate
04:51AM 51.3612 -27.2299 79° East  Level FlightAware Approximate
04:52AM 51.3876 -27.0032 79° East  Level FlightAware Approximate
04:53AM 51.4136 -26.7763 80° East  Level FlightAware Approximate
04:54AM 51.4392 -26.5491 80° East  Level FlightAware Approximate
04:55AM 51.4643 -26.3217 80° East  Level FlightAware Approximate
04:56AM 51.4897 -26.0942 80° East  Level FlightAware Approximate
04:57AM 51.5146 -25.8665 80° East  Level FlightAware Approximate
04:58AM 51.5392 -25.6386 80° East  Level FlightAware Approximate
04:59AM 51.5633 -25.4104 80° East  Level FlightAware Approximate
05:00AM 51.5870 -25.1819 80° East  Level FlightAware Approximate
05:01AM 51.6102 -24.9533 81° East  Level FlightAware Approximate
05:02AM 51.6330 -24.7243 81° East  Level FlightAware Approximate
05:03AM 51.6553 -24.4952 81° East  Level FlightAware Approximate
05:04AM 51.6772 -24.2659 81° East  Level FlightAware Approximate
05:05AM 51.6986 -24.0363 81° East  Level FlightAware Approximate
05:06AM 51.7196 -23.8065 82° East  Level FlightAware Approximate
05:07AM 51.7402 -23.5765 82° East  Level FlightAware Approximate
05:08AM 51.7603 -23.3463 82° East  Level FlightAware Approximate
05:09AM 51.7799 -23.1159 82° East  Level FlightAware Approximate
05:10AM 51.7991 -22.8853 82° East  Level FlightAware Approximate
05:11AM 51.8178 -22.6544 82° East  Level FlightAware Approximate
05:12AM 51.8361 -22.4234 83° East  Level FlightAware Approximate
05:13AM 51.8540 -22.1923 83° East  Level FlightAware Approximate
05:14AM 51.8713 -21.9609 83° East  Level FlightAware Approximate
05:15AM 51.8883 -21.7294 83° East  Level FlightAware Approximate
05:16AM 51.9047 -21.4977 83° East  Level FlightAware Approximate
05:17AM 51.9208 -21.2658 84° East  Level FlightAware Approximate
05:18AM 51.9356 -21.0444 84° East  Level FlightAware Approximate
05:19AM 51.9501 -20.8228 84° East  Level FlightAware Approximate
05:20AM 51.9640 -20.6019 84° East  Level FlightAware Approximate
05:21AM 51.9776 -20.3808 84° East  Level FlightAware Approximate
05:22AM 51.9908 -20.1596 84° East  Level FlightAware Approximate
05:23AM 51.9968 -19.9383 95° East  Level FlightAware Approximate
05:24AM 51.9850 -19.7168 95° East  Level FlightAware Approximate
05:25AM 51.9728 -19.4955 95° East  Level FlightAware Approximate
05:26AM 51.9603 -19.2743 95° East  Level FlightAware Approximate
05:27AM 51.9472 -19.0532 95° East  Level FlightAware Approximate
05:28AM 51.9338 -18.8323 96° East  Level FlightAware Approximate
05:29AM 51.9200 -18.6115 96° East  Level FlightAware Approximate
05:30AM 51.9057 -18.3908 96° East  Level FlightAware Approximate
05:31AM 51.8911 -18.1702 96° East  Level FlightAware Approximate
05:32AM 51.8760 -17.9499 96° East  Level FlightAware Approximate
05:33AM 51.8605 -17.7296 96° East  Level FlightAware Approximate
05:34AM 51.8446 -17.5095 97° East  Level FlightAware Approximate
05:35AM 51.8283 -17.2896 97° East  Level FlightAware Approximate
05:36AM 51.8116 -17.0698 97° East  Level FlightAware Approximate
05:37AM 51.7945 -16.8502 97° East  Level FlightAware Approximate
05:38AM 51.7769 -16.6308 97° East  Level FlightAware Approximate
05:39AM 51.7590 -16.4115 97° East  Level FlightAware Approximate
05:40AM 51.7406 -16.1925 98° East  Level FlightAware Approximate
05:41AM 51.7219 -15.9736 98° East  Level FlightAware Approximate
05:42AM 51.7027 -15.7548 98° East  Level FlightAware Approximate
05:43AM 51.6832 -15.5363 98° East  Level FlightAware Approximate
05:44AM 51.6632 -15.3180 98° East  Level FlightAware Approximate
05:45AM 51.6428 -15.0998 98° East  Level FlightAware Approximate
05:46AM 51.6211 -14.8821 99° East  Level FlightAware Approximate
05:47AM 51.5981 -14.6649 100° East  Level FlightAware Approximate
05:48AM 51.5747 -14.4478 100° East  Level FlightAware Approximate
05:49AM 51.5509 -14.2310 100° East  Level FlightAware Approximate
05:50AM 51.5268 -14.0144 100° East  Level FlightAware Approximate
05:51AM 51.5022 -13.7980 100° East  Level FlightAware Approximate
05:52AM 51.4773 -13.5819 100° East  Level FlightAware Approximate
05:53AM 51.4519 -13.3660 101° East  Level FlightAware Approximate
05:54AM 51.4281 -13.1498 100° East  Level FlightAware Approximate
05:55AM 51.4041 -12.9337 100° East  Level FlightAware Approximate
05:56AM 51.3797 -12.7179 100° East  Level FlightAware Approximate
05:57AM 51.3549 -12.5023 100° East  Level FlightAware Approximate
05:58AM 51.3297 -12.2869 101° East  Level FlightAware Approximate
05:59AM 51.3041 -12.0718 101° East  Level FlightAware Approximate
06:00AM 51.2780 -11.8569 101° East  Level FlightAware Approximate
06:01AM 51.2517 -11.6423 101° East  Level FlightAware Approximate
06:02AM 51.2249 -11.4279 101° East  Level FlightAware Approximate
06:02AM 50.7000 -10.7700 101° East 500 575 35,100  Level FlightAware
06:03AM 51.1977 -11.2138 101° East  Level FlightAware Approximate
06:03AM 50.6270 -10.6180 127° Southeast 500 575 35,100  Level FlightAware
06:04AM 50.5840 -10.5290 127° Southeast 500 575 35,100  Level FlightAware
06:05AM 50.5400 -10.4380 127° Southeast 500 575 35,100  Level FlightAware
06:05AM 50.4850 -10.3220 127° Southeast 500 575 35,100  Level FlightAware
06:06AM 50.4300 -10.2080 127° Southeast 500 575 35,100  Level FlightAware
06:07AM 50.3850 -10.1150 127° Southeast 500 575 35,100  Level FlightAware
06:08AM 50.3290 -9.9970 127° Southeast 500 575 35,100  Level FlightAware
06:08AM 50.2870 -9.9110 127° Southeast 500 575 35,100 1,620 Level FlightAware
06:09AM 50.1560 -9.6760 131° Southeast 500 575 37,100 1,500 Climbing FlightAware
06:09AM 50.0970 -9.5600 128° Southeast 498 573 37,100  Level FlightAware
06:10AM 50.0340 -9.4350 128° Southeast 496 571 37,100  Level FlightAware
06:11AM 49.9440 -9.2620 129° Southeast 493 567 37,100  Level FlightAware
06:12AM 49.8750 -9.1270 128° Southeast 490 564 37,100  Level FlightAware
06:13AM 49.8170 -9.0150 129° Southeast 490 564 37,100 -120 Level FlightAware
06:13AM 49.7559 -8.8982 129° Southeast 494 568 37,000  Descending FlightAware UK
06:14AM 49.7430 -8.8700 129° Southeast 490 564 37,100 60 Climbing FlightAware
06:14AM 49.6990 -8.7830 128° Southeast 490 564 37,100 -120 Level FlightAware
06:15AM 49.6275 -8.6534 128° Southeast 498 573 37,000 -120 Descending FlightAware UK
06:15AM 49.5844 -8.5721 129° Southeast 498 573 37,000 60 Level FlightAware UK
06:16AM 49.5870 -8.5630 129° Southeast 490 564 37,100  Climbing FlightAware
06:16AM 49.5413 -8.4908 129° Southeast 496 571 37,000 -180 Descending FlightAware UK
06:16AM 49.4982 -8.4093 129° Southeast 496 571 37,000 120 Level FlightAware UK
06:17AM 49.4800 -8.3740 129° Southeast 493 567 37,100 60 Climbing FlightAware
06:17AM 49.4240 -8.2700 130° Southeast 495 570 37,100 -120 Level FlightAware
06:18AM 49.3678 -8.1655 130° Southeast 496 571 37,000  Descending FlightAware UK
06:18AM 49.3670 -8.1640 130° Southeast 495 570 37,100 60 Climbing FlightAware
06:19AM 49.2940 -8.0290 130° Southeast 497 572 37,100  Level FlightAware
06:19AM 49.2410 -7.9270 130° Southeast 498 573 37,100 -180 Level FlightAware
06:19AM 49.2362 -7.9202 130° Southeast 498 573 37,000  Descending FlightAware UK
06:20AM 49.1960 -7.7920 117° Southeast 500 575 37,100 60 Climbing FlightAware
06:21AM 49.1510 -7.6570 117° Southeast 501 577 37,100 -120 Level FlightAware
06:21AM 49.1110 -7.5406 117° Southeast 500 575 37,000  Descending FlightAware UK
06:22AM 49.1000 -7.5140 117° Southeast 502 578 37,100 120 Climbing FlightAware
06:22AM 49.0560 -7.3900 118° Southeast 502 578 37,100 -120 Level FlightAware
06:23AM 49.0114 -7.2611 118° Southeast 498 573 37,000  Descending FlightAware UK
06:23AM 49.0100 -7.2520 118° Southeast 502 578 37,100 120 Climbing FlightAware
06:24AM 48.9640 -7.1160 117° Southeast 504 580 37,100  Level FlightAware
06:24AM 48.9280 -7.0090 117° Southeast 503 579 37,100  Level FlightAware
06:25AM 48.8900 -6.9030 117° Southeast 503 579 37,100 -180 Level FlightAware
06:25AM 48.8846 -6.8815 117° Southeast 502 578 37,000 -180 Descending FlightAware UK
06:25AM 48.8522 -6.7876 117° Southeast 500 575 37,000 120 Level FlightAware UK
06:26AM 48.8390 -6.7530 117° Southeast 504 580 37,100 60 Climbing FlightAware
06:26AM 48.7930 -6.6180 117° Southeast 504 580 37,100 -120 Level FlightAware
06:27AM 48.7551 -6.5075 117° Southeast 506 582 37,000  Descending FlightAware UK
06:27AM 48.7470 -6.4840 117° Southeast 502 578 37,100 120 Climbing FlightAware
06:28AM 48.7040 -6.3630 118° Southeast 501 577 37,100 -120 Level FlightAware
06:28AM 48.6574 -6.2280 118° Southeast 500 575 37,000  Descending FlightAware UK
06:29AM 48.6550 -6.2240 118° Southeast 501 577 37,100  Climbing FlightAware
06:29AM 48.6185 -6.1168 118° Southeast 498 573 37,000  Descending FlightAware UK
06:29AM 48.6040 -6.0790 118° Southeast 501 577 37,100 60 Climbing FlightAware
06:30AM 48.5600 -5.9550 118° Southeast 503 579 37,100  Level FlightAware
06:31AM 48.5110 -5.8160 118° Southeast 503 579 37,100  Level FlightAware
06:31AM 48.4720 -5.7050 118° Southeast 503 579 37,100 -120 Level FlightAware
06:32AM 48.4341 -5.5980 118° Southeast 500 575 37,000  Descending FlightAware UK
06:32AM 48.4290 -5.5850 118° Southeast 504 580 37,100 120 Climbing FlightAware
06:33AM 48.3830 -5.4590 119° Southeast 504 580 37,100  Level FlightAware
06:33AM 48.3380 -5.3360 119° Southeast 505 581 37,100 -180 Level FlightAware
06:33AM 48.3344 -5.3220 119° Southeast 502 578 37,000  Descending FlightAware UK
06:34AM 48.2940 -5.2120 119° Southeast 505 581 37,100  Climbing FlightAware
06:34AM 48.2943 -5.2113 119° Southeast 502 578 37,000  Descending FlightAware UK
06:35AM 48.2480 -5.0870 119° Southeast 504 580 37,100 60 Climbing FlightAware
06:35AM 48.1980 -4.9520 119° Southeast 504 580 37,100  Level FlightAware
06:36AM 48.1520 -4.8270 119° Southeast 504 580 37,100  Level FlightAware
06:37AM 48.1050 -4.7020 119° Southeast 504 580 37,100  Level FlightAware
06:37AM 48.0560 -4.5680 119° Southeast 502 578 37,100  Level FlightAware
06:38AM 48.0150 -4.4600 120° Southeast 502 578 37,100  Level FlightAware
06:39AM 47.9700 -4.3390 119° Southeast 501 577 37,100  Level FlightAware
06:39AM 47.9190 -4.2070 120° Southeast 500 575 37,100  Level FlightAware
06:40AM 47.8750 -4.0870 119° Southeast 499 574 37,100  Level FlightAware
06:41AM 47.8280 -3.9650 120° Southeast 498 573 37,100  Level FlightAware
06:41AM 47.7840 -3.8520 120° Southeast 497 572 37,100  Level FlightAware
06:42AM 47.7310 -3.7140 120° Southeast 495 570 37,100  Level FlightAware
06:43AM 47.6910 -3.6110 120° Southeast 494 568 37,100  Level FlightAware
06:44AM 47.6360 -3.4670 120° Southeast 493 567 37,100  Level FlightAware
06:44AM 47.5890 -3.3470 120° Southeast 493 567 37,100  Level FlightAware
06:45AM 47.5410 -3.2210 119° Southeast 493 567 37,100  Level FlightAware
06:46AM 47.5040 -3.0970 114° Southeast 494 568 37,100  Level FlightAware
06:46AM 47.4600 -2.9560 115° Southeast 495 570 37,100  Level FlightAware
06:47AM 47.4230 -2.8400 115° Southeast 496 571 37,100  Level FlightAware
06:48AM 47.3770 -2.7000 116° Southeast 496 571 37,100  Level FlightAware
06:49AM 47.3390 -2.5850 116° Southeast 497 572 37,100  Level FlightAware
06:49AM 47.2930 -2.4450 116° Southeast 496 571 37,100  Level FlightAware
06:50AM 47.2520 -2.3200 116° Southeast 496 571 37,100  Level FlightAware
06:51AM 47.2130 -2.2050 116° Southeast 497 572 37,100  Level FlightAware
06:51AM 47.1680 -2.0680 116° Southeast 496 571 37,100  Level FlightAware
06:52AM 47.1300 -1.9530 116° Southeast 496 571 37,100  Level FlightAware
06:53AM 47.0850 -1.8170 116° Southeast 496 571 37,100  Level FlightAware
06:53AM 47.0400 -1.6850 117° Southeast 495 570 37,100  Level FlightAware
06:54AM 46.9950 -1.5600 118° Southeast 496 571 37,100  Level FlightAware
06:55AM 46.9520 -1.4420 118° Southeast 497 572 37,100  Level FlightAware
06:55AM 46.9090 -1.3230 118° Southeast 498 573 37,100  Level FlightAware
06:56AM 46.8660 -1.1960 116° Southeast 499 574 37,100  Level FlightAware
06:57AM 46.8240 -1.0530 113° Southeast 502 578 37,100  Level FlightAware
06:58AM 46.7900 -0.9480 115° Southeast 503 579 37,100  Level FlightAware
06:58AM 46.7350 -0.7780 115° Southeast 501 577 37,100  Level FlightAware
06:59AM 46.6980 -0.6500 113° Southeast 37,100  Level FlightAware
07:00AM 46.6590 -0.5170 113° Southeast 502 578 37,100  Level FlightAware
07:01AM 46.6230 -0.3970 114° Southeast 501 577 37,100  Level FlightAware
07:01AM 46.5820 -0.2680 115° Southeast 502 578 37,100  Level FlightAware
07:02AM 46.5440 -0.1410 113° Southeast 503 579 37,100  Level FlightAware
07:03AM 46.5030 -0.0060 114° Southeast 503 579 37,100 -120 Level FlightAware
07:03AM 46.4650 0.1140 115° Southeast 501 577 37,000  Descending FlightAware
07:04AM 46.4280 0.2330 114° Southeast 502 578 37,100 60 Climbing FlightAware
07:05AM 46.3900 0.3560 114° Southeast 503 579 37,100  Level FlightAware
07:05AM 46.3480 0.4910 114° Southeast 504 580 37,100  Level FlightAware
07:06AM 46.3110 0.6070 115° Southeast 505 581 37,100  Level FlightAware
07:07AM 46.2670 0.7450 115° Southeast 504 580 37,100  Level FlightAware
07:07AM 46.2280 0.8670 115° Southeast 503 579 37,100  Level FlightAware
07:08AM 46.1950 0.9710 115° Southeast 503 579 37,100  Level FlightAware
07:09AM 46.1220 1.1990 115° Southeast 503 579 37,100  Level FlightAware
07:10AM 46.0780 1.3350 115° Southeast 504 580 37,100  Level FlightAware
07:13AM 45.9779 1.8080 107° East  Level Estimated
07:13AM 45.9170 1.8140 107° East 508 585 37,100  Level FlightAware
07:13AM 45.8740 1.9370 117° Southeast 508 585 37,100  Level FlightAware
07:14AM 45.8260 2.0690 118° Southeast 509 586 37,100  Level FlightAware
07:15AM 45.7880 2.1770 117° Southeast 509 586 37,100  Level FlightAware
07:15AM 45.7370 2.3180 117° Southeast 508 585 37,100  Level FlightAware
07:16AM 45.6930 2.4400 117° Southeast 509 586 37,100  Level FlightAware
07:17AM 45.6540 2.5480 117° Southeast 510 587 37,100  Level FlightAware
07:17AM 45.6000 2.6970 117° Southeast 510 587 37,100  Level FlightAware
07:18AM 45.5520 2.8320 117° Southeast 509 586 37,100  Level FlightAware
07:19AM 45.5060 2.9560 118° Southeast 37,100  Level FlightAware
07:20AM 45.4600 3.0780 118° Southeast 509 586 37,100  Level FlightAware
07:21AM 45.3940 3.2550 118° Southeast 509 586 37,100  Level FlightAware
07:21AM 45.3490 3.3760 118° Southeast 506 582 37,100  Level FlightAware
07:22AM 45.3000 3.5080 118° Southeast 506 582 37,100  Level FlightAware
07:23AM 45.2430 3.6630 118° Southeast 505 581 37,100  Level FlightAware
07:24AM 45.1940 3.8700 109° East 504 580 37,100  Level FlightAware
07:25AM 45.1710 3.9910 105° East 504 580 37,100  Level FlightAware
07:25AM 45.1510 4.1090 103° East 504 580 37,100  Level FlightAware
07:26AM 45.1290 4.2410 103° East 504 580 37,100 -120 Level FlightAware
07:27AM 45.1070 4.3720 103° East 504 580 37,000  Descending FlightAware
07:27AM 45.0720 4.4760 115° Southeast 503 579 37,100 60 Climbing FlightAware
07:28AM 45.0100 4.5980 126° Southeast 502 578 37,100  Level FlightAware
07:29AM 44.9540 4.7030 127° Southeast 499 574 37,100  Level FlightAware
07:29AM 44.8940 4.8180 126° Southeast 496 571 37,100  Level FlightAware
07:30AM 44.8400 4.9190 127° Southeast 495 570 37,100  Level FlightAware
07:31AM 44.7810 5.0290 127° Southeast 493 567 37,100  Level FlightAware
07:31AM 44.7260 5.1340 126° Southeast 491 565 37,100  Level FlightAware
07:32AM 44.6850 5.2100 127° Southeast 490 564 37,100  Level FlightAware
07:33AM 44.6080 5.3550 127° Southeast 488 562 37,100  Level FlightAware
07:34AM 44.5420 5.4740 128° Southeast 489 563 37,100  Level FlightAware
07:34AM 44.4990 5.5540 127° Southeast 490 564 37,100  Level FlightAware
07:35AM 44.4370 5.6680 127° Southeast 491 565 37,100  Level FlightAware
07:36AM 44.3870 5.7700 124° Southeast 494 568 37,100 360 Level FlightAware
07:36AM 44.3430 5.8720 121° Southeast 497 572 37,600 960 Climbing FlightAware
07:37AM 44.2900 5.9910 122° Southeast 495 570 38,400 840 Climbing FlightAware
07:38AM 44.2450 6.0920 122° Southeast 500 575 38,800 480 Climbing FlightAware
07:38AM 44.1930 6.2040 123° Southeast 504 580 39,100 180 Climbing FlightAware
07:39AM 44.1360 6.3260 123° Southeast 503 579 39,100  Level FlightAware
07:40AM 44.0830 6.4390 123° Southeast 502 578 39,100  Level FlightAware
07:40AM 44.0310 6.5490 123° Southeast 501 577 39,100  Level FlightAware
07:41AM 43.9670 6.6810 124° Southeast 498 573 39,100  Level FlightAware
07:42AM 43.9100 6.8030 123° Southeast 497 572 39,100  Level FlightAware
07:43AM 43.8580 6.9110 124° Southeast 494 568 39,100  Level FlightAware
07:43AM 43.8100 7.0120 123° Southeast 494 568 39,100  Level FlightAware
07:44AM 43.7600 7.1170 123° Southeast 494 568 39,100  Level FlightAware
07:45AM 43.7010 7.2370 124° Southeast 494 568 39,100  Level FlightAware
07:45AM 43.6500 7.3420 124° Southeast 496 571 39,100  Level FlightAware
07:46AM 43.6020 7.4400 124° Southeast 497 572 39,100 -120 Level FlightAware
07:47AM 43.5480 7.5500 124° Southeast 499 574 39,000  Descending FlightAware
07:47AM 43.4960 7.6580 124° Southeast 500 575 39,100  Climbing FlightAware
07:48AM 43.4500 7.7510 124° Southeast 501 577 39,000  Descending FlightAware
07:49AM 43.4010 7.8480 125° Southeast 500 575 39,100 60 Climbing FlightAware
07:49AM 43.3390 7.9740 124° Southeast 501 577 39,100  Level FlightAware
07:50AM 43.2810 8.0900 124° Southeast 500 575 39,100  Level FlightAware
07:51AM 43.2220 8.2070 125° Southeast 499 574 39,100  Level FlightAware
07:52AM 43.1510 8.3480 125° Southeast 498 573 39,100  Level FlightAware
07:52AM 43.1060 8.4380 124° Southeast 498 573 39,100  Level FlightAware
07:54AM 43.0090 8.6300 125° Southeast 497 572 39,100  Level FlightAware
07:54AM 42.9560 8.7350 125° Southeast 497 572 39,100  Level FlightAware
07:55AM 42.9010 8.8410 125° Southeast 497 572 39,100  Level FlightAware
07:56AM 42.8420 8.9560 125° Southeast 496 571 39,100  Level FlightAware
07:56AM 42.7950 9.0480 125° Southeast 496 571 39,100  Level FlightAware
07:57AM 42.7400 9.1550 125° Southeast 495 570 39,100  Level FlightAware
07:58AM 42.6860 9.2590 125° Southeast 496 571 39,100  Level FlightAware
07:58AM 42.6360 9.3560 125° Southeast 496 571 39,100  Level FlightAware
07:59AM 42.5770 9.4720 125° Southeast 495 570 39,100  Level FlightAware
08:01AM 42.4590 9.7290 122° Southeast 491 565 39,100  Level FlightAware
08:02AM 42.4030 9.8520 122° Southeast 491 565 39,100  Level FlightAware
08:02AM 42.3550 9.9570 122° Southeast 492 566 39,100 -120 Level FlightAware
08:03AM 42.2950 10.0900 121° Southeast 494 568 39,000 -120 Descending FlightAware
08:04AM 42.2370 10.2130 122° Southeast 493 567 39,000  Level FlightAware
08:04AM 42.1890 10.3190 121° Southeast 495 570 39,000 60 Level FlightAware
08:05AM 42.1400 10.4250 122° Southeast 496 571 39,100 60 Climbing FlightAware
08:06AM 42.0910 10.5300 122° Southeast 497 572 39,100  Level FlightAware
08:06AM 42.0410 10.6360 122° Southeast 497 572 39,100  Level FlightAware
08:07AM 41.9860 10.7540 122° Southeast 496 571 39,100  Level FlightAware
08:08AM 41.9430 10.8440 123° Southeast 496 571 39,100  Level FlightAware
08:09AM 41.8870 10.9640 122° Southeast 496 571 39,100  Level FlightAware
08:09AM 41.8380 11.0690 122° Southeast 495 570 39,100  Level FlightAware
08:10AM 41.7810 11.1860 123° Southeast 495 570 39,100  Level FlightAware
08:11AM 41.6980 11.3580 123° Southeast 499 574 39,100  Level FlightAware
08:11AM 41.6690 11.4200 122° Southeast 499 574 39,100  Level FlightAware
08:12AM 41.6080 11.5470 123° Southeast 499 574 39,100  Level FlightAware
08:13AM 41.5640 11.6380 123° Southeast 499 574 39,100  Level FlightAware
08:14AM 41.5130 11.7440 123° Southeast 499 574 39,100  Level FlightAware
08:14AM 41.4640 11.8450 123° Southeast 500 575 39,100  Level FlightAware
08:15AM 41.4120 11.9510 123° Southeast 501 577 39,100  Level FlightAware
08:16AM 41.3620 12.0520 123° Southeast 503 579 39,100  Level FlightAware
08:16AM 41.3110 12.1560 123° Southeast 505 581 39,100 -120 Level FlightAware
08:17AM 41.2630 12.2540 123° Southeast 505 581 39,000  Descending FlightAware
08:18AM 41.2100 12.3680 122° Southeast 506 582 39,100 60 Climbing FlightAware
08:18AM 41.1560 12.4950 119° Southeast 507 583 39,100  Level FlightAware
08:19AM 41.1070 12.6080 120° Southeast 508 585 39,100  Level FlightAware
08:20AM 41.0610 12.7130 120° Southeast 508 585 39,100  Level FlightAware
08:20AM 41.0240 12.7960 121° Southeast 508 585 39,100  Level FlightAware
08:21AM 40.9660 12.9240 121° Southeast 505 581 39,100  Level FlightAware
08:22AM 40.9180 13.0300 121° Southeast 504 580 39,100  Level FlightAware
08:22AM 40.8800 13.1150 121° Southeast 503 579 39,100  Level FlightAware
08:23AM 40.8280 13.2340 120° Southeast 502 578 39,100  Level FlightAware
08:24AM 40.7740 13.3550 120° Southeast 503 579 39,100  Level FlightAware
08:24AM 40.7300 13.4530 121° Southeast 502 578 39,100  Level FlightAware
08:25AM 40.6770 13.5680 121° Southeast 501 577 39,100  Level FlightAware
08:26AM 40.6350 13.6620 120° Southeast 500 575 39,100  Level FlightAware
08:26AM 40.5780 13.7880 121° Southeast 501 577 39,100  Level FlightAware
08:27AM 40.5380 13.8770 121° Southeast 502 578 39,100  Level FlightAware
08:28AM 40.4870 13.9870 121° Southeast 503 579 39,100  Level FlightAware
08:28AM 40.4340 14.1020 121° Southeast 504 580 39,100  Level FlightAware
08:29AM 40.3970 14.1830 121° Southeast 505 581 39,100  Level FlightAware
08:30AM 40.3390 14.3090 121° Southeast 506 582 39,100  Level FlightAware
08:31AM 40.2840 14.4270 121° Southeast 505 581 39,100  Level FlightAware
08:31AM 40.2360 14.5280 122° Southeast 504 580 39,100  Level FlightAware
08:32AM 40.1820 14.6450 121° Southeast 503 579 39,100  Level FlightAware
08:33AM 40.1350 14.7460 121° Southeast 502 578 39,100  Level FlightAware
08:33AM 40.0790 14.8650 122° Southeast 501 577 39,100  Level FlightAware
08:34AM 40.0300 14.9680 122° Southeast 502 578 39,100  Level FlightAware
08:35AM 39.9760 15.0820 122° Southeast 502 578 39,100  Level FlightAware
08:35AM 39.9280 15.1820 122° Southeast 502 578 39,100  Level FlightAware
08:36AM 39.8810 15.2820 121° Southeast 502 578 39,100  Level FlightAware
08:37AM 39.8320 15.3850 122° Southeast 503 579 39,100  Level FlightAware
08:37AM 39.7790 15.4950 122° Southeast 504 580 39,100  Level FlightAware
08:38AM 39.7260 15.6050 122° Southeast 504 580 39,100 -120 Level FlightAware
08:39AM 39.6830 15.6930 122° Southeast 505 581 39,000  Descending FlightAware
08:39AM 39.6260 15.8110 122° Southeast 506 582 39,100 60 Climbing FlightAware
08:40AM 39.5720 15.9210 122° Southeast 508 585 39,100  Level FlightAware
08:41AM 39.5240 16.0220 122° Southeast 510 587 39,100  Level FlightAware
08:42AM 39.4730 16.1250 123° Southeast 510 587 39,100  Level FlightAware
08:42AM 39.4180 16.2360 123° Southeast 511 588 39,100  Level FlightAware
08:43AM 39.3740 16.3260 122° Southeast 510 587 39,100  Level FlightAware
08:44AM 39.3110 16.4520 123° Southeast 509 586 39,100  Level FlightAware
08:44AM 39.2670 16.5480 121° Southeast 512 589 39,100  Level FlightAware
08:45AM 39.2220 16.6770 114° Southeast 519 597 39,100  Level FlightAware
08:46AM 39.1900 16.7870 111° Southeast 518 596 39,100  Level FlightAware
08:46AM 39.1520 16.9170 111° Southeast 519 597 39,100  Level FlightAware
08:47AM 39.1170 17.0390 110° East 520 598 39,100  Level FlightAware
08:48AM 39.0680 17.2060 111° Southeast 520 598 39,100  Level FlightAware
08:49AM 39.0490 17.2700 111° Southeast 519 597 39,100  Level FlightAware
08:49AM 39.0100 17.3990 111° Southeast 519 597 39,100  Level FlightAware
08:50AM 38.9770 17.5080 111° Southeast 518 596 39,100  Level FlightAware
08:51AM 38.9440 17.6200 111° Southeast 516 594 39,100  Level FlightAware
08:52AM 38.8990 17.7680 111° Southeast 514 592 39,100  Level FlightAware
08:52AM 38.8640 17.8850 111° Southeast 514 592 39,100  Level FlightAware
08:53AM 38.8270 18.0040 112° Southeast 516 594 39,100  Level FlightAware
08:54AM 38.7890 18.1320 111° Southeast 515 593 39,100  Level FlightAware
08:54AM 38.7480 18.2630 112° Southeast 514 592 39,100  Level FlightAware
08:55AM 38.7100 18.3870 111° Southeast 514 592 39,100  Level FlightAware
08:56AM 38.6750 18.5000 112° Southeast 514 592 39,100  Level FlightAware
08:57AM 38.6380 18.6190 112° Southeast 513 590 39,100  Level FlightAware
08:57AM 38.6000 18.7400 112° Southeast 512 589 39,100  Level FlightAware
08:58AM 38.5650 18.8520 112° Southeast 512 589 39,100  Level FlightAware
08:59AM 38.5180 19.0050 111° Southeast 512 589 39,100  Level FlightAware
09:00AM 38.4750 19.1650 109° East 517 595 39,100  Level FlightAware
09:01AM 38.4330 19.3240 109° East 517 595 39,100  Level FlightAware
09:01AM 38.4030 19.4360 109° East 517 595 39,100  Level FlightAware
09:02AM 38.3700 19.5630 108° East 517 595 39,100  Level FlightAware
09:03AM 38.3400 19.6730 109° East 517 595 39,100  Level FlightAware
09:03AM 38.3090 19.7880 109° East 518 596 39,100  Level FlightAware
09:04AM 38.2800 19.8950 109° East 521 600 39,100  Level FlightAware
09:05AM 38.2480 20.0140 109° East 522 601 39,100  Level FlightAware
09:05AM 38.2210 20.1120 109° East 523 602 39,100  Level FlightAware
09:06AM 38.1840 20.2500 109° East 523 602 39,100  Level FlightAware
09:07AM 38.1600 20.3390 109° East 523 602 39,100  Level FlightAware
09:08AM 38.1290 20.4500 110° East 523 602 39,100  Level FlightAware
09:08AM 38.0500 20.6720 114° Southeast 509 586 39,100  Level FlightAware
09:10AM 37.9300 20.9910 113° Southeast 506 582 39,100  Level FlightAware
09:11AM 37.9312 21.0216 113° Southeast  Level Estimated
09:13AM 37.8160 21.3235 113° Southeast  Level Estimated
09:14AM 37.7606 21.4841 114° Southeast  Level Estimated
09:14AM 37.7110 21.5750 114° Southeast 506 582 39,100  Level FlightAware
09:17AM 37.5911 21.9192 114° Southeast  Level Estimated
09:18AM 37.5350 22.0789 114° Southeast  Level Estimated
09:18AM 37.5220 22.0850 114° Southeast 506 582 39,100  Level FlightAware
09:19AM 37.4930 22.1620 115° Southeast 506 582 39,100  Level FlightAware
09:19AM 37.4610 22.2510 114° Southeast 506 582 39,100  Level FlightAware
09:20AM 37.4300 22.3320 116° Southeast 506 582 39,100  Level FlightAware
09:21AM 37.3660 22.5050 115° Southeast 506 582 39,100  Level FlightAware
09:22AM 37.2390 22.9030 112° Southeast 506 582 39,100  Level FlightAware
09:23AM 37.2050 23.0190 110° East 506 582 39,100  Level FlightAware
09:24AM 37.1550 23.1860 111° Southeast 505 581 39,100  Level FlightAware
09:25AM 37.1100 23.3370 110° East 505 581 39,100  Level FlightAware
09:26AM 37.0660 23.4660 113° Southeast 505 581 39,100  Level FlightAware
09:26AM 37.0360 23.5520 114° Southeast 505 581 39,100 -120 Level FlightAware
09:27AM 36.9790 23.7180 113° Southeast 505 581 39,000  Descending FlightAware
09:28AM 36.9370 23.8390 113° Southeast 507 583 39,100 60 Climbing FlightAware
09:28AM 36.9130 23.9120 112° Southeast 507 583 39,100  Level FlightAware
09:29AM 36.8710 24.0300 114° Southeast 506 582 39,100  Level FlightAware
09:30AM 36.8250 24.1640 113° Southeast 504 580 39,100  Level FlightAware
09:31AM 36.7800 24.2940 113° Southeast 502 578 39,100  Level FlightAware
09:32AM 36.7390 24.4070 114° Southeast 501 577 39,100  Level FlightAware
09:32AM 36.7030 24.5110 113° Southeast 501 577 39,100  Level FlightAware
09:33AM 36.6590 24.6350 114° Southeast 503 579 39,100  Level FlightAware
09:34AM 36.6200 24.7460 114° Southeast 505 581 39,100  Level FlightAware
09:34AM 36.5850 24.8420 114° Southeast 506 582 39,100  Level FlightAware
09:35AM 36.5560 24.9250 113° Southeast 507 583 39,100  Level FlightAware
09:36AM 36.5120 25.0440 115° Southeast 508 585 39,100  Level FlightAware
09:36AM 36.4730 25.1560 113° Southeast 508 585 39,100  Level FlightAware
09:37AM 36.4320 25.2680 114° Southeast 509 586 39,100  Level FlightAware
09:38AM 36.3910 25.3800 114° Southeast 509 586 39,100  Level FlightAware
09:38AM 36.3530 25.4840 114° Southeast 508 585 39,100  Level FlightAware
09:39AM 36.3120 25.5980 114° Southeast 508 585 39,100  Level FlightAware
09:40AM 36.2710 25.7100 114° Southeast 509 586 39,100  Level FlightAware
09:40AM 36.2350 25.8050 115° Southeast 511 588 39,100  Level FlightAware
09:41AM 36.1930 25.9200 114° Southeast 511 588 39,100  Level FlightAware
09:42AM 36.1550 26.0230 115° Southeast 510 587 39,100  Level FlightAware
09:42AM 36.1180 26.1240 114° Southeast 510 587 39,100  Level FlightAware
09:43AM 36.0670 26.2570 115° Southeast 511 588 39,100  Level FlightAware
09:44AM 36.0280 26.3630 114° Southeast 512 589 39,100  Level FlightAware
09:45AM 35.9860 26.4740 115° Southeast 513 590 39,100  Level FlightAware
09:45AM 35.9440 26.5860 115° Southeast 512 589 39,100  Level FlightAware
09:46AM 35.9060 26.6860 115° Southeast 511 588 39,100  Level FlightAware
09:47AM 35.8350 26.8740 115° Southeast 510 587 39,100  Level FlightAware
09:48AM 35.8060 26.9500 115° Southeast 510 587 39,100  Level FlightAware
09:49AM 35.7650 27.0580 115° Southeast 510 587 39,100  Level FlightAware
09:49AM 35.7330 27.1430 115° Southeast 510 587 39,100  Level FlightAware
09:50AM 35.6840 27.2730 115° Southeast 510 587 39,100  Level FlightAware
09:51AM 35.6450 27.3760 115° Southeast 510 587 39,100  Level FlightAware
09:52AM 35.5640 27.5790 116° Southeast 499 574 39,100  Level FlightAware
09:53AM 35.5250 27.6850 114° Southeast 499 574 39,100  Level FlightAware
09:53AM 35.4860 27.7930 114° Southeast 499 574 39,100  Level FlightAware
09:54AM 35.4580 27.8700 114° Southeast 499 574 39,100  Level FlightAware
09:55AM 35.4210 27.9730 114° Southeast 499 574 39,100  Level FlightAware
09:55AM 35.3420 28.1390 120° Southeast 500 575 39,100  Level FlightAware
09:56AM 35.3090 28.2260 115° Southeast 500 575 39,100  Level FlightAware
09:57AM 35.2560 28.3580 116° Southeast 498 573 39,100  Level FlightAware
09:57AM 35.2150 28.4610 116° Southeast 496 571 39,100  Level FlightAware
09:58AM 35.1710 28.5690 116° Southeast 494 568 39,100  Level FlightAware
09:59AM 35.1350 28.6570 117° Southeast 494 568 39,100  Level FlightAware
10:00AM 35.0830 28.7870 116° Southeast 494 568 39,100  Level FlightAware
10:00AM 35.0370 28.9000 116° Southeast 492 566 39,100  Level FlightAware
10:01AM 34.9950 29.0050 116° Southeast 494 568 39,100  Level FlightAware
10:02AM 34.9500 29.1150 116° Southeast 494 568 39,100  Level FlightAware
10:02AM 34.9180 29.1940 116° Southeast 494 568 39,100  Level FlightAware
10:03AM 34.8790 29.2920 116° Southeast 494 568 39,100  Level FlightAware
10:04AM 34.8480 29.3690 116° Southeast 494 568 39,100  Level FlightAware
10:05AM 34.8060 29.4730 116° Southeast 494 568 39,100  Level FlightAware
10:05AM 34.7740 29.5540 116° Southeast 494 568 39,100  Level FlightAware
10:06AM 34.7350 29.6510 116° Southeast 494 568 39,100  Level FlightAware
10:07AM 34.7030 29.7300 116° Southeast 494 568 39,100  Level FlightAware
10:07AM 34.6620 29.8340 116° Southeast 494 568 39,100  Level FlightAware
10:08AM 34.6300 29.9120 116° Southeast 494 568 39,100  Level FlightAware
10:09AM 34.5890 30.0140 116° Southeast 494 568 39,100  Level FlightAware
10:09AM 34.5590 30.0910 115° Southeast 494 568 39,100  Level FlightAware
10:10AM 34.5190 30.1880 117° Southeast 494 568 39,100  Level FlightAware
10:11AM 34.3440 30.4870 125° Southeast 492 566 39,100  Level FlightAware
10:12AM 34.3020 30.5730 121° Southeast 488 562 39,100  Level FlightAware
10:12AM 34.2510 30.6770 121° Southeast 487 560 39,100  Level FlightAware
10:13AM 34.2000 30.7840 120° Southeast 488 562 39,100  Level FlightAware
10:14AM 34.1530 30.8810 120° Southeast 489 563 39,100  Level FlightAware
10:14AM 34.1130 30.9640 120° Southeast 490 564 39,100  Level FlightAware
10:15AM 34.0610 31.0690 121° Southeast 491 565 39,100  Level FlightAware
10:16AM 34.0180 31.1570 121° Southeast 492 566 39,100  Level FlightAware
10:16AM 33.9720 31.2520 120° Southeast 492 566 39,100  Level FlightAware
10:17AM 33.9220 31.3530 121° Southeast 494 568 39,100  Level FlightAware
10:18AM 33.8750 31.4480 121° Southeast 495 570 39,100  Level FlightAware
10:19AM 33.8280 31.5440 120° Southeast 499 574 39,100  Level FlightAware
10:19AM 33.7920 31.6180 120° Southeast 500 575 39,100  Level FlightAware
10:20AM 33.7390 31.7230 121° Southeast 500 575 39,100  Level FlightAware
10:20AM 33.6920 31.8180 121° Southeast 500 575 39,100  Level FlightAware
10:21AM 33.6510 31.8990 121° Southeast 500 575 39,100  Level FlightAware
10:22AM 33.5960 32.0110 120° Southeast 501 577 39,100  Level FlightAware
10:22AM 33.5590 32.0850 121° Southeast 502 578 39,100  Level FlightAware
10:23AM 33.5020 32.1970 121° Southeast 502 578 39,100  Level FlightAware
10:24AM 33.4390 32.3200 122° Southeast 502 578 39,100  Level FlightAware
10:25AM 33.3970 32.4050 121° Southeast 502 578 39,100  Level FlightAware
10:25AM 33.3490 32.4980 122° Southeast 500 575 39,100 -600 Level FlightAware
10:26AM 33.2940 32.6080 121° Southeast 496 571 38,300 -1,320 Descending FlightAware
10:27AM 33.2520 32.6880 122° Southeast 493 567 37,400 -960 Descending FlightAware
10:27AM 33.2020 32.7900 120° Southeast 487 560 37,000 -300 Descending FlightAware
10:28AM 33.1680 32.8620 119° Southeast 487 560 37,000 -4,260 Level FlightAware
10:29AM 33.0770 33.0290 123° Southeast 526 605 30,300 -6,300 Descending FlightAware
10:29AM 33.0420 33.0980 121° Southeast 525 604 28,300 -3,000 Descending FlightAware
10:31AM 32.9470 33.2820 122° Southeast 500 575 25,300 -1,800 Descending FlightAware
10:31AM 32.9060 33.3600 122° Southeast 499 574 25,000 -1,320 Descending FlightAware
10:32AM 32.8430 33.4820 122° Southeast 498 573 23,500 -2,580 Descending FlightAware
10:33AM 32.7930 33.5760 122° Southeast 483 556 21,100 -3,360 Descending FlightAware
10:33AM 32.7430 33.6720 122° Southeast 475 547 18,800 -2,820 Descending FlightAware
10:34AM 32.7060 33.7430 122° Southeast 473 544 17,600 -2,220 Descending FlightAware
10:35AM 32.6600 33.8300 122° Southeast 453 521 16,200 -2,520 Descending FlightAware
10:35AM 32.6110 33.9240 122° Southeast 412 474 14,000 -1,680 Descending FlightAware
10:37AM 32.5540 34.0300 123° Southeast 388 447 13,100 -1,740 Descending FlightAware
10:37AM 32.5200 34.0940 122° Southeast 324 373 11,100 -1,740 Descending FlightAware
10:38AM 32.4760 34.1760 122° Southeast 319 367 10,300 -1,500 Descending FlightAware
10:39AM 32.4400 34.2140 138° Southeast 311 358 9,000 -2,160 Descending FlightAware
10:39AM 32.4130 34.2460 135° Southeast 308 354 8,400 -1,320 Descending FlightAware
10:40AM 32.3850 34.2790 135° Southeast 305 351 7,800 -1,260 Descending FlightAware
10:40AM 32.3400 34.3320 135° Southeast 299 344 6,900 -1,200 Descending FlightAware
10:41AM 32.2950 34.3840 136° Southeast 289 333 6,000 -780 Descending FlightAware
10:41AM 32.2740 34.4080 136° Southeast 289 333 6,000  Level FlightAware
10:44AM 32.1377 34.6982 125° Southeast  Level FlightAware Approximate
10:45AM 32.0474 34.8192 140° Southeast  Level FlightAware Approximate
10:46AM 32.0000 34.8667 140° Southeast  Level FlightAware Approximate
10:47AM 32.0095 34.8769 140° Southeast  Level Estimated
10:48AM 32.0095 34.8769 140° Southeast  Level Estimated
10:49AM 32.0095 34.8769 140° Southeast  Level Estimated
10:50AM 32.0095 34.8769 140° Southeast  Level Estimated
10:51AM 32.0095 34.8769 140° Southeast  Level Estimated
10:52AM 32.0095 34.8769 140° Southeast  Level Estimated
10:53AM 32.0095 34.8769 140° Southeast  Level Estimated
10:54AM 32.0095 34.8769 140° Southeast  Level Estimated
10:55AM 32.0095 34.8769 140° Southeast  Level Estimated
10:56AM 32.0095 34.8769 140° Southeast  Level Estimated
10:57AM 32.0095 34.8769 140° Southeast  Level Estimated
10:58AM 32.0095 34.8769 140° Southeast  Level Estimated
10:59AM 32.0095 34.8769 140° Southeast  Level Estimated
11:00AM 32.0095 34.8769 140° Southeast  Level Estimated
11:01AM 32.0095 34.8769 140° Southeast  Level Estimated
11:02AM 32.0095 34.8769 140° Southeast  Level Estimated
11:03AM 32.0095 34.8769 140° Southeast  Level Estimated
11:04AM 32.0095 34.8769 140° Southeast  Level Estimated
11:05AM 32.0095 34.8769 140° Southeast  Level Estimated
11:06AM 32.0095 34.8769 140° Southeast  Level Estimated
11:07AM 32.0095 34.8769 140° Southeast  Level Estimated
11:08AM 32.0095 34.8769 140° Southeast  Level Estimated
11:09AM 32.0095 34.8769 140° Southeast  Level Estimated
11:10AM 32.0095 34.8769 140° Southeast  Level Estimated
11:11AM 32.0095 34.8769 140° Southeast  Level Estimated
11:12AM 32.0095 34.8769 140° Southeast  Level Estimated
11:13AM 32.0095 34.8769 140° Southeast  Level Estimated
11:14AM 32.0095 34.8769 140° Southeast  Level Estimated
11:15AM 32.0095 34.8769 140° Southeast  Level Estimated
11:16AM 32.0095 34.8769 140° Southeast  Level Estimated
11:17AM 32.0095 34.8769 140° Southeast  Level Estimated
11:18AM 32.0095 34.8769 140° Southeast  Level Estimated
11:19AM 32.0095 34.8769 140° Southeast  Level Estimated
11:20AM 32.0095 34.8769 140° Southeast  Level Estimated